createdAt,value
2023-04-17T00:00:01.932Z,15.77
2023-04-17T00:02:04.573Z,16.75
2023-04-17T00:04:10.713Z,17.10
2023-04-17T00:06:14.183Z,17.13
2023-04-17T00:08:16.753Z,17.02
2023-04-17T00:10:21.429Z,17.42
2023-04-17T00:12:23.962Z,16.33
2023-04-17T00:14:26.679Z,17.58
2023-04-17T00:16:29.245Z,16.65
2023-04-17T00:18:31.831Z,17.33
2023-04-17T00:20:34.357Z,17.48
2023-04-17T00:22:36.998Z,17.15
2023-04-17T00:24:39.499Z,16.58
2023-04-17T00:26:43.464Z,17.15
2023-04-17T00:28:47.323Z,17.15
2023-04-17T00:30:49.916Z,16.40
2023-04-17T00:32:52.623Z,16.92
2023-04-17T00:34:55.887Z,16.42
2023-04-17T00:36:59.188Z,16.63
2023-04-17T00:39:01.786Z,15.85
2023-04-17T00:41:04.379Z,15.93
2023-04-17T00:43:08.417Z,15.23
2023-04-17T00:45:11.391Z,16.17
2023-04-17T00:47:14.430Z,16.73
2023-04-17T00:49:17.121Z,16.10
2023-04-17T00:51:19.804Z,17.02
2023-04-17T00:53:22.769Z,16.92
2023-04-17T00:55:25.525Z,16.30
2023-04-17T00:57:28.177Z,16.27
2023-04-17T00:59:33.457Z,16.90
2023-04-17T01:01:36.050Z,16.38
2023-04-17T01:03:41.891Z,15.32
2023-04-17T01:05:45.466Z,16.23
2023-04-17T01:07:48.048Z,16.45
2023-04-17T01:09:50.679Z,17.15
2023-04-17T01:11:53.253Z,16.73
2023-04-17T01:13:55.904Z,16.35
2023-04-17T01:15:59.791Z,16.55
2023-04-17T01:18:02.891Z,16.35
2023-04-17T01:20:07.819Z,16.42
2023-04-17T01:22:10.384Z,15.82
2023-04-17T01:24:14.264Z,16.80
2023-04-17T01:26:18.719Z,15.77
2023-04-17T01:28:21.256Z,16.98
2023-04-17T01:30:24.029Z,16.38
2023-04-17T01:32:27.029Z,16.48
2023-04-17T01:34:29.608Z,17.33
2023-04-17T01:36:32.199Z,17.23
2023-04-17T01:38:34.710Z,16.40
2023-04-17T01:40:38.582Z,16.83
2023-04-17T01:42:41.230Z,15.80
2023-04-17T01:44:43.807Z,17.30
2023-04-17T01:46:46.365Z,17.73
2023-04-17T01:48:48.969Z,16.25
2023-04-17T01:50:51.701Z,15.88
2023-04-17T01:52:54.326Z,17.15
2023-04-17T01:54:56.866Z,16.90
2023-04-17T01:57:01.263Z,16.13
2023-04-17T01:59:03.837Z,16.75
2023-04-17T02:01:06.974Z,16.98
2023-04-17T02:03:09.743Z,17.05
2023-04-17T02:05:12.433Z,16.35
2023-04-17T02:07:14.944Z,16.38
2023-04-17T02:09:17.504Z,16.55
2023-04-17T02:11:20.087Z,16.92
2023-04-17T02:13:23.953Z,16.08
2023-04-17T02:15:27.086Z,16.92
2023-04-17T02:17:29.689Z,17.58
2023-04-17T02:19:32.253Z,17.60
2023-04-17T02:21:34.771Z,16.45
2023-04-17T02:23:37.359Z,17.90
2023-04-17T02:25:39.941Z,17.05
2023-04-17T02:27:42.637Z,16.98
2023-04-17T02:29:46.502Z,16.30
2023-04-17T02:31:49.191Z,17.10
2023-04-17T02:33:51.787Z,17.77
2023-04-17T02:35:54.335Z,17.33
2023-04-17T02:37:57.041Z,17.83
2023-04-17T02:39:59.603Z,17.45
2023-04-17T02:42:03.030Z,17.65
2023-04-17T02:44:05.902Z,17.25
2023-04-17T02:46:09.800Z,18.20
2023-04-17T02:48:12.363Z,17.27
2023-04-17T02:50:14.904Z,17.88
2023-04-17T02:52:17.477Z,16.80
2023-04-17T02:54:20.592Z,17.00
2023-04-17T02:56:23.126Z,17.13
2023-04-17T02:58:25.669Z,16.58
2023-04-17T03:00:28.492Z,16.98
2023-04-17T03:02:32.504Z,18.45
2023-04-17T03:04:35.645Z,17.13
2023-04-17T03:06:38.211Z,17.17
2023-04-17T03:08:40.784Z,17.40
2023-04-17T03:10:43.447Z,17.50
2023-04-17T03:12:46.013Z,18.42
2023-04-17T03:14:48.556Z,18.17
2023-04-17T03:16:53.170Z,16.83
2023-04-17T03:18:57.057Z,16.77
2023-04-17T03:20:59.623Z,16.80
2023-04-17T03:23:02.172Z,17.60
2023-04-17T03:25:05.016Z,18.27
2023-04-17T03:27:07.579Z,17.77
2023-04-17T03:29:10.292Z,17.48
2023-04-17T03:31:12.941Z,17.67
2023-04-17T03:33:16.229Z,16.73
2023-04-17T03:35:20.157Z,16.85
2023-04-17T03:37:22.707Z,17.17
2023-04-17T03:39:25.350Z,18.00
2023-04-17T03:41:27.919Z,19.13
2023-04-17T03:43:30.471Z,17.58
2023-04-17T03:45:33.141Z,17.90
2023-04-17T03:47:35.727Z,17.88
2023-04-17T03:49:38.269Z,18.38
2023-04-17T03:51:43.541Z,18.35
2023-04-17T03:53:46.066Z,18.27
2023-04-17T03:55:48.629Z,18.67
2023-04-17T03:57:51.974Z,18.17
2023-04-17T03:59:54.556Z,17.95
2023-04-17T04:01:57.393Z,17.67
2023-04-17T04:04:00.276Z,18.55
2023-04-17T04:06:02.946Z,18.73
2023-04-17T04:08:07.016Z,18.45
2023-04-17T04:10:10.296Z,17.63
2023-04-17T04:12:12.822Z,19.30
2023-04-17T04:14:15.752Z,18.88
2023-04-17T04:16:18.404Z,19.05
2023-04-17T04:18:21.020Z,18.52
2023-04-17T04:20:23.643Z,18.63
2023-04-17T04:22:26.277Z,18.13
2023-04-17T04:24:30.435Z,18.10
2023-04-17T04:26:33.322Z,19.02
2023-04-17T04:28:35.910Z,18.33
2023-04-17T04:30:38.961Z,20.45
2023-04-17T04:32:41.619Z,18.77
2023-04-17T04:34:45.287Z,18.30
2023-04-17T04:36:50.787Z,19.50
2023-04-17T04:38:53.313Z,18.42
2023-04-17T04:41:01.319Z,18.88
2023-04-17T04:43:04.302Z,18.30
2023-04-17T04:45:07.909Z,17.92
2023-04-17T04:47:10.455Z,19.45
2023-04-17T04:49:13.591Z,18.67
2023-04-17T04:51:16.400Z,19.25
2023-04-17T04:53:19.012Z,19.02
2023-04-17T04:55:21.822Z,17.67
2023-04-17T04:57:25.833Z,19.42
2023-04-17T04:59:28.374Z,18.77
2023-04-17T05:01:31.078Z,18.48
2023-04-17T05:03:33.926Z,17.30
2023-04-17T05:05:37.732Z,18.88
2023-04-17T05:07:40.304Z,17.65
2023-04-17T05:09:43.273Z,18.92
2023-04-17T05:11:45.826Z,18.67
2023-04-17T05:13:49.690Z,19.10
2023-04-17T05:15:52.342Z,17.58
2023-04-17T05:17:54.933Z,18.20
2023-04-17T05:19:57.554Z,18.58
2023-04-17T05:22:00.115Z,19.30
2023-04-17T05:24:02.733Z,18.48
2023-04-17T05:26:05.788Z,18.05
2023-04-17T05:28:08.704Z,18.27
2023-04-17T05:30:13.953Z,18.20
2023-04-17T05:32:16.470Z,19.38
2023-04-17T05:34:19.002Z,17.98
2023-04-17T05:36:22.276Z,18.73
2023-04-17T05:38:24.817Z,20.48
2023-04-17T05:40:27.344Z,19.15
2023-04-17T05:42:29.916Z,19.42
2023-04-17T05:44:32.491Z,19.20
2023-04-17T05:46:36.352Z,19.35
2023-04-17T05:48:38.917Z,18.30
2023-04-17T05:50:41.792Z,18.50
2023-04-17T05:52:44.367Z,19.80
2023-04-17T05:54:46.887Z,19.60
2023-04-17T05:56:50.042Z,20.50
2023-04-17T05:58:52.589Z,19.77
2023-04-17T06:00:56.816Z,19.60
2023-04-17T06:03:01.372Z,19.55
2023-04-17T06:05:04.562Z,20.48
2023-04-17T06:07:08.146Z,19.98
2023-04-17T06:09:11.453Z,19.70
2023-04-17T06:11:15.718Z,19.75
2023-04-17T06:13:18.280Z,18.85
2023-04-17T06:15:21.238Z,19.55
2023-04-17T06:17:24.071Z,19.38
2023-04-17T06:19:27.959Z,20.40
2023-04-17T06:21:31.457Z,19.25
2023-04-17T06:23:34.128Z,19.45
2023-04-17T06:25:36.703Z,19.27
2023-04-17T06:27:39.253Z,19.55
2023-04-17T06:29:44.561Z,19.27
2023-04-17T06:31:47.114Z,18.38
2023-04-17T06:33:50.840Z,19.73
2023-04-17T06:35:54.846Z,20.45
2023-04-17T06:37:57.463Z,18.42
2023-04-17T06:40:00.005Z,18.20
2023-04-17T06:42:02.980Z,19.15
2023-04-17T06:44:05.795Z,19.60
2023-04-17T06:46:08.356Z,19.27
2023-04-17T06:48:11.466Z,17.77
2023-04-17T06:50:14.076Z,19.35
2023-04-17T06:52:20.098Z,19.20
2023-04-17T06:54:22.674Z,18.55
2023-04-17T06:56:25.347Z,18.48
2023-04-17T06:58:27.924Z,17.45
2023-04-17T07:00:30.477Z,17.67
2023-04-17T07:02:33.259Z,17.67
2023-04-17T07:04:36.153Z,17.13
2023-04-17T07:06:39.542Z,17.58
2023-04-17T07:08:43.430Z,17.20
2023-04-17T07:10:46.005Z,17.15
2023-04-17T07:12:48.614Z,17.13
2023-04-17T07:14:51.251Z,16.73
2023-04-17T07:16:53.868Z,16.73
2023-04-17T07:18:56.439Z,16.52
2023-04-17T07:20:59.098Z,16.73
2023-04-17T07:23:01.661Z,17.38
2023-04-17T07:25:06.534Z,15.60
2023-04-17T07:27:09.104Z,16.65
2023-04-17T07:29:11.980Z,16.23
2023-04-17T07:31:14.968Z,16.05
2023-04-17T07:33:17.593Z,16.42
2023-04-17T07:35:20.159Z,15.32
2023-04-17T07:37:22.686Z,15.07
2023-04-17T07:39:26.833Z,15.73
2023-04-17T07:41:30.738Z,15.77
2023-04-17T07:43:33.278Z,15.50
2023-04-17T07:45:37.587Z,16.35
2023-04-17T07:47:41.218Z,15.15
2023-04-17T07:49:48.629Z,15.32
2023-04-17T07:51:51.219Z,16.35
2023-04-17T07:53:53.932Z,16.88
2023-04-17T07:55:58.213Z,16.05
2023-04-17T07:58:03.836Z,18.45
2023-04-17T08:00:09.180Z,16.83
2023-04-17T08:02:12.159Z,15.48
2023-04-17T08:04:15.181Z,15.45
2023-04-17T08:06:18.085Z,15.13
2023-04-17T08:08:22.684Z,14.55
2023-04-17T08:10:25.227Z,16.45
2023-04-17T08:12:27.933Z,15.25
2023-04-17T08:14:31.899Z,15.13
2023-04-17T08:16:34.500Z,15.75
2023-04-17T08:18:37.802Z,14.50
2023-04-17T08:20:40.995Z,13.10
2023-04-17T08:22:44.719Z,13.20
2023-04-17T08:24:47.356Z,14.10
2023-04-17T08:26:50.082Z,13.80
2023-04-17T08:28:53.665Z,13.52
2023-04-17T08:30:57.681Z,13.73
2023-04-17T08:33:00.376Z,13.73
2023-04-17T08:35:02.947Z,13.23
2023-04-17T08:37:06.156Z,13.80
2023-04-17T08:39:09.989Z,13.50
2023-04-17T08:41:14.333Z,13.55
2023-04-17T08:43:19.593Z,12.52
2023-04-17T08:45:24.920Z,12.98
2023-04-17T08:47:29.547Z,12.93
2023-04-17T08:49:35.311Z,12.80
2023-04-17T08:51:37.896Z,12.00
2023-04-17T08:53:40.649Z,12.52
2023-04-17T08:55:44.110Z,11.88
2023-04-17T08:57:57.088Z,11.63
2023-04-17T09:00:00.257Z,11.30
2023-04-17T09:02:04.561Z,11.68
2023-04-17T09:04:08.883Z,11.02
2023-04-17T09:06:12.138Z,10.43
2023-04-17T09:08:16.869Z,10.80
2023-04-17T09:10:19.439Z,10.65
2023-04-17T09:12:23.281Z,11.02
2023-04-17T09:14:31.471Z,9.65
2023-04-17T09:16:35.119Z,10.48
2023-04-17T09:18:39.255Z,11.25
2023-04-17T09:20:51.755Z,10.43
2023-04-17T09:23:02.410Z,9.90
2023-04-17T09:25:05.840Z,9.32
2023-04-17T09:27:21.326Z,10.48
2023-04-17T09:29:23.886Z,10.73
2023-04-17T09:31:30.331Z,9.63
2023-04-17T09:33:33.119Z,9.98
2023-04-17T09:35:39.884Z,9.90
2023-04-17T09:37:51.652Z,9.57
2023-04-17T09:39:59.320Z,9.50
2023-04-17T09:42:06.172Z,8.90
2023-04-17T09:44:10.013Z,9.00
2023-04-17T09:46:14.274Z,9.07
2023-04-17T09:48:17.492Z,8.90
2023-04-17T09:50:22.494Z,9.32
2023-04-17T09:52:25.497Z,9.18
2023-04-17T09:54:31.617Z,9.20
2023-04-17T09:56:35.318Z,9.40
2023-04-17T09:58:39.194Z,8.43
2023-04-17T10:00:42.645Z,9.30
2023-04-17T10:02:45.865Z,9.18
2023-04-17T10:04:48.795Z,8.68
2023-04-17T10:06:51.379Z,9.57
2023-04-17T10:08:54.465Z,9.30
2023-04-17T10:11:07.102Z,8.65
2023-04-17T10:13:12.523Z,9.07
2023-04-17T10:15:16.528Z,8.98
2023-04-17T10:17:28.521Z,8.65
2023-04-17T10:19:32.842Z,9.15
2023-04-17T10:21:35.382Z,8.77
2023-04-17T10:23:38.549Z,7.97
2023-04-17T10:25:41.256Z,8.77
2023-04-17T10:27:46.555Z,8.88
2023-04-17T10:29:56.290Z,9.02
2023-04-17T10:32:15.353Z,8.85
2023-04-17T10:34:35.868Z,9.00
2023-04-17T10:36:50.796Z,8.20
2023-04-17T10:38:53.380Z,8.68
2023-04-17T10:40:55.947Z,8.63
2023-04-17T10:43:08.535Z,8.65
2023-04-17T10:45:20.211Z,8.30
2023-04-17T10:47:23.260Z,8.75
2023-04-17T10:49:25.929Z,7.88
2023-04-17T10:51:42.129Z,7.55
2023-04-17T10:53:45.701Z,7.82
2023-04-17T10:55:50.556Z,7.72
2023-04-17T10:57:58.721Z,7.63
2023-04-17T11:00:14.685Z,7.25
2023-04-17T11:02:17.698Z,7.53
2023-04-17T11:04:21.904Z,7.88
2023-04-17T11:06:28.717Z,7.88
2023-04-17T11:08:31.367Z,7.80
2023-04-17T11:10:36.786Z,7.53
2023-04-17T11:12:39.348Z,7.75
2023-04-17T11:14:43.060Z,7.78
2023-04-17T11:16:48.807Z,7.60
2023-04-17T11:18:52.082Z,7.68
2023-04-17T11:20:54.640Z,7.95
2023-04-17T11:22:58.029Z,7.43
2023-04-17T11:25:00.626Z,6.93
2023-04-17T11:27:04.670Z,5.90
2023-04-17T11:29:14.862Z,5.70
2023-04-17T11:31:19.835Z,5.75
2023-04-17T11:33:24.922Z,5.60
2023-04-17T11:35:32.145Z,5.97
2023-04-17T11:37:36.862Z,5.43
2023-04-17T11:39:43.197Z,5.85
2023-04-17T11:41:46.433Z,6.32
2023-04-17T11:43:52.106Z,6.05
2023-04-17T11:45:56.398Z,6.15
2023-04-17T11:47:59.142Z,5.68
2023-04-17T11:50:03.334Z,5.97
2023-04-17T11:52:06.991Z,5.75
2023-04-17T11:54:09.997Z,6.40
2023-04-17T11:56:14.979Z,6.72
2023-04-17T11:58:17.573Z,7.50
2023-04-17T12:00:26.026Z,7.28
2023-04-17T12:02:34.035Z,7.95
2023-04-17T12:04:38.083Z,8.25
2023-04-17T12:06:42.130Z,7.00
2023-04-17T12:08:47.896Z,7.60
2023-04-17T12:10:50.675Z,7.50
2023-04-17T12:12:53.186Z,8.25
2023-04-17T12:14:55.763Z,7.60
2023-04-17T12:16:58.462Z,7.30
2023-04-17T12:19:01.033Z,8.15
2023-04-17T12:21:03.665Z,7.55
2023-04-17T12:23:07.703Z,7.93
2023-04-17T12:25:10.537Z,7.35
2023-04-17T12:27:13.117Z,6.72
2023-04-17T12:29:16.231Z,7.95
2023-04-17T12:31:18.807Z,6.93
2023-04-17T12:33:21.355Z,6.88
2023-04-17T12:35:24.782Z,7.00
2023-04-17T12:37:27.373Z,7.35
2023-04-17T12:39:32.629Z,6.60
2023-04-17T12:41:35.270Z,7.18
2023-04-17T12:43:38.205Z,7.03
2023-04-17T12:45:45.683Z,7.60
2023-04-17T12:47:48.459Z,7.68
2023-04-17T12:49:51.051Z,7.03
2023-04-17T12:51:53.743Z,7.18
2023-04-17T12:53:56.852Z,7.05
2023-04-17T12:56:00.791Z,6.43
2023-04-17T12:58:03.324Z,6.10
2023-04-17T13:00:07.893Z,6.32
2023-04-17T13:02:10.614Z,6.63
2023-04-17T13:04:14.143Z,6.15
2023-04-17T13:06:16.975Z,5.57
2023-04-17T13:08:19.549Z,5.60
2023-04-17T13:10:22.513Z,6.53
2023-04-17T13:12:26.888Z,6.30
2023-04-17T13:14:29.427Z,5.72
2023-04-17T13:16:32.061Z,4.95
2023-04-17T13:18:34.683Z,4.40
2023-04-17T13:20:37.209Z,3.53
2023-04-17T13:22:40.211Z,2.67
2023-04-17T13:24:42.761Z,2.50
2023-04-17T13:26:45.627Z,2.55
2023-04-17T13:28:49.539Z,2.20
2023-04-17T13:30:52.940Z,2.10
2023-04-17T13:32:55.712Z,2.30
2023-04-17T13:34:58.875Z,1.88
2023-04-17T13:37:01.714Z,1.90
2023-04-17T13:39:05.206Z,2.30
2023-04-17T13:41:07.813Z,2.83
2023-04-17T13:43:10.517Z,2.85
2023-04-17T13:45:14.414Z,2.95
2023-04-17T13:47:16.938Z,3.00
2023-04-17T13:49:20.362Z,2.83
2023-04-17T13:51:23.183Z,2.40
2023-04-17T13:53:25.784Z,2.83
2023-04-17T13:55:28.378Z,2.60
2023-04-17T13:57:30.926Z,2.25
2023-04-17T13:59:33.551Z,2.50
2023-04-17T14:01:37.613Z,1.83
2023-04-17T14:03:43.048Z,2.40
2023-04-17T14:05:47.290Z,2.13
2023-04-17T14:07:49.852Z,2.25
2023-04-17T14:09:52.427Z,2.10
2023-04-17T14:11:54.955Z,2.42
2023-04-17T14:13:57.503Z,2.60
2023-04-17T14:16:00.195Z,3.38
2023-04-17T14:18:04.162Z,3.03
2023-04-17T14:20:08.307Z,3.67
2023-04-17T14:22:10.838Z,3.20
2023-04-17T14:24:13.382Z,3.67
2023-04-17T14:26:15.959Z,3.67
2023-04-17T14:28:18.880Z,4.53
2023-04-17T14:30:23.886Z,4.85
2023-04-17T14:32:26.456Z,4.60
2023-04-17T14:34:30.381Z,4.13
2023-04-17T14:36:34.782Z,3.85
2023-04-17T14:38:37.349Z,4.00
2023-04-17T14:40:39.948Z,4.00
2023-04-17T14:42:53.617Z,3.03
2023-04-17T14:44:57.242Z,3.40
2023-04-17T14:46:59.842Z,3.22
2023-04-17T14:49:02.485Z,3.50
2023-04-17T14:51:10.112Z,3.80
2023-04-17T14:53:12.683Z,3.97
2023-04-17T14:55:15.419Z,3.55
2023-04-17T14:57:17.984Z,2.10
2023-04-17T14:59:20.715Z,1.73
2023-04-17T15:01:23.361Z,1.88
2023-04-17T15:03:26.151Z,1.90
2023-04-17T15:05:28.824Z,1.88
2023-04-17T15:07:32.727Z,2.30
2023-04-17T15:09:35.424Z,3.22
2023-04-17T15:11:38.126Z,4.80
2023-04-17T15:13:40.930Z,5.40
2023-04-17T15:15:43.484Z,5.28
2023-04-17T15:17:46.096Z,5.40
2023-04-17T15:19:48.694Z,5.35
2023-04-17T15:21:51.241Z,5.97
2023-04-17T15:23:55.122Z,4.65
2023-04-17T15:25:58.343Z,4.78
2023-04-17T15:28:00.922Z,3.78
2023-04-17T15:30:06.570Z,4.20
2023-04-17T15:32:09.165Z,3.58
2023-04-17T15:34:13.468Z,3.10
2023-04-17T15:36:16.183Z,3.05
2023-04-17T15:38:19.066Z,2.70
2023-04-17T15:40:23.404Z,2.50
2023-04-17T15:42:27.122Z,2.40
2023-04-17T15:44:30.042Z,2.53
2023-04-17T15:46:32.676Z,3.25
2023-04-17T15:48:35.260Z,3.17
2023-04-17T15:50:38.119Z,3.80
2023-04-17T15:52:41.147Z,4.53
2023-04-17T15:54:43.699Z,4.53
2023-04-17T15:56:47.640Z,5.30
2023-04-17T15:58:50.161Z,5.45
2023-04-17T16:00:52.706Z,5.38
2023-04-17T16:02:55.421Z,5.55
2023-04-17T16:04:58.066Z,5.20
2023-04-17T16:07:01.236Z,6.05
2023-04-17T16:09:04.470Z,5.97
2023-04-17T16:11:07.023Z,5.70
2023-04-17T16:13:10.915Z,6.07
2023-04-17T16:15:16.200Z,5.85
2023-04-17T16:17:18.824Z,5.97
2023-04-17T16:19:21.396Z,6.43
2023-04-17T16:21:24.071Z,6.22
2023-04-17T16:23:26.627Z,6.03
2023-04-17T16:25:29.155Z,6.80
2023-04-17T16:27:33.581Z,6.35
2023-04-17T16:29:37.466Z,6.63
2023-04-17T16:31:40.156Z,6.57
2023-04-17T16:33:42.830Z,6.22
2023-04-17T16:35:45.405Z,6.22
2023-04-17T16:37:47.957Z,6.40
2023-04-17T16:39:51.068Z,6.63
2023-04-17T16:41:53.614Z,6.30
2023-04-17T16:43:56.143Z,6.57
2023-04-17T16:46:03.305Z,6.10
2023-04-17T16:48:11.350Z,6.47
2023-04-17T16:50:14.068Z,6.10
2023-04-17T16:52:16.856Z,6.75
2023-04-17T16:54:21.478Z,6.22
2023-04-17T16:56:24.033Z,6.07
2023-04-17T16:58:26.792Z,6.57
2023-04-17T17:00:29.378Z,6.72
2023-04-17T17:02:33.363Z,6.40
2023-04-17T17:04:36.058Z,6.35
2023-04-17T17:06:38.634Z,6.43
2023-04-17T17:08:45.583Z,6.50
2023-04-17T17:10:49.499Z,6.63
2023-04-17T17:12:52.035Z,5.30
2023-04-17T17:14:54.796Z,5.53
2023-04-17T17:16:57.470Z,5.85
2023-04-17T17:19:01.530Z,4.90
2023-04-17T17:21:04.810Z,6.10
2023-04-17T17:23:07.530Z,5.82
2023-04-17T17:25:10.569Z,6.25
2023-04-17T17:27:13.932Z,6.18
2023-04-17T17:29:16.511Z,6.22
2023-04-17T17:31:19.205Z,6.03
2023-04-17T17:33:21.836Z,5.22
2023-04-17T17:35:25.936Z,5.88
2023-04-17T17:37:28.501Z,5.57
2023-04-17T17:39:31.047Z,5.18
2023-04-17T17:41:33.630Z,5.60
2023-04-17T17:43:36.187Z,4.50
2023-04-17T17:45:38.887Z,2.70
2023-04-17T17:47:41.479Z,2.58
2023-04-17T17:49:44.078Z,2.58
2023-04-17T17:51:47.962Z,2.22
2023-04-17T17:53:50.539Z,2.20
2023-04-17T17:55:53.826Z,1.80
2023-04-17T17:57:56.444Z,1.85
2023-04-17T17:59:59.120Z,1.60
2023-04-17T18:02:02.509Z,1.50
2023-04-17T18:04:06.769Z,1.52
2023-04-17T18:06:09.833Z,1.50
2023-04-17T18:08:14.132Z,1.73
2023-04-17T18:10:16.876Z,2.17
2023-04-17T18:12:19.457Z,2.40
2023-04-17T18:14:21.964Z,2.78
2023-04-17T18:16:25.586Z,2.35
2023-04-17T18:18:28.176Z,2.50
2023-04-17T18:20:30.762Z,3.20
2023-04-17T18:22:33.294Z,3.25
2023-04-17T18:24:37.453Z,3.13
2023-04-17T18:26:40.007Z,3.53
2023-04-17T18:28:42.793Z,4.03
2023-04-17T18:30:45.336Z,5.50
2023-04-17T18:32:47.969Z,4.60
2023-04-17T18:34:51.262Z,4.00
2023-04-17T18:36:54.460Z,4.57
2023-04-17T18:38:57.011Z,4.45
2023-04-17T18:41:01.129Z,4.07
2023-04-17T18:43:05.996Z,4.00
2023-04-17T18:45:09.777Z,3.65
2023-04-17T18:47:12.388Z,3.60
2023-04-17T18:49:15.000Z,3.85
2023-04-17T18:51:17.661Z,4.15
2023-04-17T18:53:20.202Z,3.50
2023-04-17T18:55:23.488Z,3.38
2023-04-17T18:57:27.491Z,3.85
2023-04-17T18:59:30.335Z,3.88
2023-04-17T19:01:32.868Z,3.83
2023-04-17T19:03:35.432Z,3.90
2023-04-17T19:05:38.050Z,4.30
2023-04-17T19:07:40.799Z,3.97
2023-04-17T19:09:44.697Z,4.03
2023-04-17T19:11:47.242Z,3.95
2023-04-17T19:13:51.265Z,3.90
2023-04-17T19:15:53.888Z,3.80
2023-04-17T19:17:56.879Z,4.07
2023-04-17T19:19:59.487Z,3.45
2023-04-17T19:22:02.010Z,3.70
2023-04-17T19:24:05.054Z,4.18
2023-04-17T19:26:09.133Z,3.92
2023-04-17T19:28:13.274Z,3.97
2023-04-17T19:30:17.286Z,4.20
2023-04-17T19:32:19.920Z,4.38
2023-04-17T19:34:22.443Z,4.53
2023-04-17T19:36:27.372Z,4.80
2023-04-17T19:38:31.120Z,4.78
2023-04-17T19:40:33.792Z,4.75
2023-04-17T19:42:36.347Z,5.15
2023-04-17T19:44:38.879Z,4.53
2023-04-17T19:46:42.856Z,5.30
2023-04-17T19:48:46.557Z,5.10
2023-04-17T19:50:49.135Z,4.95
2023-04-17T19:52:51.833Z,4.75
2023-04-17T19:54:54.506Z,4.80
2023-04-17T19:56:57.029Z,5.15
2023-04-17T19:59:02.615Z,4.75
2023-04-17T20:01:05.490Z,5.22
2023-04-17T20:03:09.545Z,4.93
2023-04-17T20:05:12.145Z,6.30
2023-04-17T20:07:14.760Z,6.10
2023-04-17T20:09:18.189Z,5.95
2023-04-17T20:11:20.902Z,7.38
2023-04-17T20:13:23.436Z,6.40
2023-04-17T20:15:25.959Z,6.13
2023-04-17T20:17:28.632Z,6.88
2023-04-17T20:19:33.328Z,6.65
2023-04-17T20:21:35.865Z,6.80
2023-04-17T20:23:38.418Z,6.25
2023-04-17T20:25:40.964Z,5.45
2023-04-17T20:27:43.500Z,6.53
2023-04-17T20:29:46.104Z,6.22
2023-04-17T20:31:48.821Z,6.35
2023-04-17T20:33:51.445Z,6.60
2023-04-17T20:35:57.418Z,5.82
2023-04-17T20:38:00.321Z,5.72
2023-04-17T20:40:03.284Z,6.65
2023-04-17T20:42:05.980Z,6.18
2023-04-17T20:44:09.412Z,6.03
2023-04-17T20:46:11.991Z,6.05
2023-04-17T20:48:14.690Z,6.55
2023-04-17T20:50:17.348Z,6.80
2023-04-17T20:52:21.263Z,6.75
2023-04-17T20:54:26.116Z,6.22
2023-04-17T20:56:28.678Z,7.15
2023-04-17T20:58:31.268Z,7.28
2023-04-17T21:00:34.639Z,7.10
2023-04-17T21:02:37.276Z,6.15
2023-04-17T21:04:39.977Z,5.93
2023-04-17T21:06:42.519Z,6.45
2023-04-17T21:08:46.419Z,5.88
2023-04-17T21:10:48.970Z,6.03
2023-04-17T21:12:51.474Z,6.38
2023-04-17T21:14:54.032Z,6.30
2023-04-17T21:16:58.471Z,6.22
2023-04-17T21:19:01.038Z,6.82
2023-04-17T21:21:07.201Z,6.00
2023-04-17T21:23:09.745Z,5.30
2023-04-17T21:25:13.661Z,5.95
2023-04-17T21:27:16.232Z,6.15
2023-04-17T21:29:18.819Z,5.22
2023-04-17T21:31:21.394Z,5.18
2023-04-17T21:33:23.930Z,5.60
2023-04-17T21:35:27.103Z,5.25
2023-04-17T21:37:29.654Z,4.93
2023-04-17T21:39:33.236Z,6.13
2023-04-17T21:41:38.046Z,6.20
2023-04-17T21:43:40.605Z,5.50
2023-04-17T21:45:43.167Z,5.32
2023-04-17T21:47:45.757Z,6.30
2023-04-17T21:49:48.404Z,6.35
2023-04-17T21:51:51.007Z,6.22
2023-04-17T21:53:53.583Z,6.00
2023-04-17T21:55:56.456Z,6.38
2023-04-17T21:58:00.471Z,6.78
2023-04-17T22:00:03.515Z,6.30
2023-04-17T22:02:06.054Z,7.28
2023-04-17T22:04:08.630Z,7.38
2023-04-17T22:06:11.396Z,7.53
2023-04-17T22:08:13.938Z,8.35
2023-04-17T22:10:16.505Z,8.48
2023-04-17T22:12:20.565Z,8.27
2023-04-17T22:14:26.914Z,8.43
2023-04-17T22:16:32.243Z,8.85
2023-04-17T22:18:34.829Z,8.70
2023-04-17T22:20:37.828Z,9.63
2023-04-17T22:22:40.383Z,9.45
2023-04-17T22:24:43.505Z,9.68
2023-04-17T22:26:46.348Z,9.65
2023-04-17T22:28:48.939Z,9.95
2023-04-17T22:30:52.828Z,10.05
2023-04-17T22:32:56.503Z,10.20
2023-04-17T22:34:59.312Z,11.02
2023-04-17T22:37:01.873Z,10.05
2023-04-17T22:39:04.576Z,9.57
2023-04-17T22:41:07.109Z,9.80
2023-04-17T22:43:09.832Z,9.77
2023-04-17T22:45:12.488Z,10.75
2023-04-17T22:47:17.660Z,10.68
2023-04-17T22:49:20.229Z,10.30
2023-04-17T22:51:23.912Z,10.73
2023-04-17T22:53:26.449Z,11.27
2023-04-17T22:55:28.984Z,10.73
2023-04-17T22:57:31.514Z,12.73
2023-04-17T22:59:34.044Z,11.00
2023-04-17T23:01:36.672Z,11.10
2023-04-17T23:03:40.623Z,11.85
2023-04-17T23:05:43.238Z,11.02
2023-04-17T23:07:45.814Z,12.30
2023-04-17T23:09:48.388Z,11.73
2023-04-17T23:11:51.153Z,12.05
2023-04-17T23:13:53.678Z,11.75
2023-04-17T23:15:56.247Z,11.27
2023-04-17T23:17:58.966Z,12.05
2023-04-17T23:20:03.985Z,11.68
2023-04-17T23:22:07.405Z,11.93
2023-04-17T23:24:10.227Z,12.43
2023-04-17T23:26:14.773Z,12.20
2023-04-17T23:28:17.646Z,12.82
2023-04-17T23:30:20.386Z,12.30
2023-04-17T23:32:23.111Z,12.82
2023-04-17T23:34:26.930Z,12.93
2023-04-17T23:36:31.622Z,12.00
2023-04-17T23:38:34.198Z,12.25
2023-04-17T23:40:36.759Z,13.95
2023-04-17T23:42:39.271Z,12.98
2023-04-17T23:44:41.809Z,13.40
2023-04-17T23:46:44.401Z,12.93
2023-04-17T23:48:49.852Z,13.80
2023-04-17T23:50:52.520Z,13.55
2023-04-17T23:52:56.388Z,13.98
2023-04-17T23:54:58.968Z,13.77
2023-04-17T23:57:02.013Z,14.43
2023-04-17T23:59:04.577Z,14.15
